Sadan Bayraktar — TCRB — position and weather

sailwx.info

Track history (hours):
 
Tides and Currents Weather Stations Pressure Air Temp Water Temp Dewpoint Dewpoint Depression Visibility Wind Speed Wind Dir Waves Ship Positions

Sadan Bayraktar

Last reported at 2017-Feb-13 01:07 UTC. Time now 2017-Feb-21 19:08 UTC.
Position N 38°24' E 000°15'.
Warning: this ship's position is 8 days out of date.

Length 116 m; draft 7.4 m.

Type: Ship. MMSI: 271000653.

Date/timePositionNaut miles runAvg speedWind from/ knotsBaromVisibWave heightAir tempDewpointWater temp
2017-Feb-13 01:07N 38°24' E 000°15'6 9.9
2017-Feb-13 00:33N 38°30' E 000°17'6210.3
2017-Feb-12 18:33N 39°26' W 000°18'2 1.9
2017-Feb-12 17:33N 39°27' W 000°19'0 0.0
2017-Feb-12 16:33N 39°27' W 000°19'0 0.0
2017-Feb-12 15:32N 39°27' W 000°19'0 0.0
2017-Feb-12 14:32N 39°27' W 000°19'0 0.0
2017-Feb-12 13:32N 39°27' W 000°19'0 0.0
2017-Feb-12 12:32N 39°27' W 000°19'0 0.0
2017-Feb-12 11:29N 39°27' W 000°19'0 0.0
2017-Feb-12 10:29N 39°27' W 000°19'0 0.0
2017-Feb-12 09:08N 39°27' W 000°19'0 0.0
2017-Feb-12 08:29N 39°27' W 000°19'0 0.0
2017-Feb-12 07:32N 39°27' W 000°19'0 0.0
2017-Feb-12 06:33N 39°27' W 000°19'0 0.0
2017-Feb-12 05:33N 39°27' W 000°19'0 0.0
2017-Feb-12 04:33N 39°27' W 000°19'0 0.0
2017-Feb-12 03:33N 39°27' W 000°19'0 0.0
2017-Feb-12 02:33N 39°27' W 000°19'0 0.0
2017-Feb-12 01:29N 39°27' W 000°19'0 0.0
2017-Feb-12 00:29N 39°27' W 000°19'0 0.0
2017-Feb-11 23:33N 39°27' W 000°19'0 0.0
2017-Feb-11 22:33N 39°27' W 000°19'0 0.0
2017-Feb-11 21:33N 39°27' W 000°19'0 0.0
2017-Feb-11 20:31N 39°27' W 000°19'0 0.0
2017-Feb-11 19:28N 39°27' W 000°19'0 0.0
2017-Feb-11 18:31N 39°27' W 000°19'0 0.0
2017-Feb-11 17:28N 39°27' W 000°19'0 0.0
2017-Feb-11 16:32N 39°27' W 000°19'1 0.7
2017-Feb-11 15:33N 39°26' W 000°19'3 0.3
2017-Feb-11 06:25N 39°24' W 000°18'0 0.0
2017-Feb-11 05:28N 39°24' W 000°18'0 0.0
2017-Feb-11 04:22N 39°24' W 000°18'0 0.0
2017-Feb-11 03:31N 39°24' W 000°18'0 0.0
2017-Feb-11 02:31N 39°24' W 000°18'0 0.0
2017-Feb-11 01:31N 39°24' W 000°18'0 0.0
2017-Feb-11 00:32N 39°24' W 000°18'2 1.4
2017-Feb-10 23:13N 39°25' W 000°16'811.8
2017-Feb-10 22:33N 39°30' W 000°08'7111.9
2017-Feb-10 16:32N 40°18' E 001°02'1311.9
2017-Feb-10 15:27N 40°26' E 001°15'1112.1
2017-Feb-10 14:33N 40°32' E 001°26'1211.9
2017-Feb-10 13:33N 40°41' E 001°37'1311.8
2017-Feb-10 12:25N 40°52' E 001°47'17 2.4
2017-Feb-10 05:27N 41°03' E 002°04'1011.4
2017-Feb-10 04:33N 40°54' E 001°59'1211.5
2017-Feb-10 03:33N 40°43' E 001°53'1211.7
2017-Feb-10 02:30N 40°32' E 001°47'1212.2
2017-Feb-10 01:32N 40°21' E 001°41'1211.9
2017-Feb-10 00:33N 40°10' E 001°36'1211.5
2017-Feb-09 23:33N 39°59' E 001°30'1111.2
2017-Feb-09 22:33N 39°49' E 001°25'1211.2
2017-Feb-09 21:28N 39°38' E 001°19'1111.5
2017-Feb-09 20:32N 39°28' E 001°14'1111.6
2017-Feb-09 19:33N 39°17' E 001°08'1211.8
2017-Feb-09 18:33N 39°06' E 001°03'1711.7
2017-Feb-09 17:07N 38°50' E 000°55'  
Track history (hours):
 
Tides and Currents Weather Stations Pressure Air Temp Water Temp Dewpoint Dewpoint Depression Visibility Wind Speed Wind Dir Waves Ship Positions

Sadan Bayraktar

Last reported at 2017-Feb-13 01:07 UTC. Time now 2017-Feb-21 19:08 UTC.
Position N 38°24' E 000°15'.
Warning: this ship's position is 8 days out of date.

Length 116 m; draft 7.4 m.

Type: Ship. MMSI: 271000653.

Date/timePositionNaut miles runAvg speedWind from/ knotsBaromVisibWave heightAir tempDewpointWater temp
2017-Feb-13 01:07N 38°24' E 000°15'6 9.9
2017-Feb-13 00:33N 38°30' E 000°17'6210.3
2017-Feb-12 18:33N 39°26' W 000°18'2 1.9
2017-Feb-12 17:33N 39°27' W 000°19'0 0.0
2017-Feb-12 16:33N 39°27' W 000°19'0 0.0
2017-Feb-12 15:32N 39°27' W 000°19'0 0.0
2017-Feb-12 14:32N 39°27' W 000°19'0 0.0
2017-Feb-12 13:32N 39°27' W 000°19'0 0.0
2017-Feb-12 12:32N 39°27' W 000°19'0 0.0
2017-Feb-12 11:29N 39°27' W 000°19'0 0.0
2017-Feb-12 10:29N 39°27' W 000°19'0 0.0
2017-Feb-12 09:08N 39°27' W 000°19'0 0.0
2017-Feb-12 08:29N 39°27' W 000°19'0 0.0
2017-Feb-12 07:32N 39°27' W 000°19'0 0.0
2017-Feb-12 06:33N 39°27' W 000°19'0 0.0
2017-Feb-12 05:33N 39°27' W 000°19'0 0.0
2017-Feb-12 04:33N 39°27' W 000°19'0 0.0
2017-Feb-12 03:33N 39°27' W 000°19'0 0.0
2017-Feb-12 02:33N 39°27' W 000°19'0 0.0
2017-Feb-12 01:29N 39°27' W 000°19'0 0.0
2017-Feb-12 00:29N 39°27' W 000°19'0 0.0
2017-Feb-11 23:33N 39°27' W 000°19'0 0.0
2017-Feb-11 22:33N 39°27' W 000°19'0 0.0
2017-Feb-11 21:33N 39°27' W 000°19'0 0.0
2017-Feb-11 20:31N 39°27' W 000°19'0 0.0
2017-Feb-11 19:28N 39°27' W 000°19'0 0.0
2017-Feb-11 18:31N 39°27' W 000°19'0 0.0
2017-Feb-11 17:28N 39°27' W 000°19'0 0.0
2017-Feb-11 16:32N 39°27' W 000°19'1 0.7
2017-Feb-11 15:33N 39°26' W 000°19'3 0.3
2017-Feb-11 06:25N 39°24' W 000°18'0 0.0
2017-Feb-11 05:28N 39°24' W 000°18'0 0.0
2017-Feb-11 04:22N 39°24' W 000°18'0 0.0
2017-Feb-11 03:31N 39°24' W 000°18'0 0.0
2017-Feb-11 02:31N 39°24' W 000°18'0 0.0
2017-Feb-11 01:31N 39°24' W 000°18'0 0.0
2017-Feb-11 00:32N 39°24' W 000°18'2 1.4
2017-Feb-10 23:13N 39°25' W 000°16'811.8
2017-Feb-10 22:33N 39°30' W 000°08'7111.9
2017-Feb-10 16:32N 40°18' E 001°02'1311.9
2017-Feb-10 15:27N 40°26' E 001°15'1112.1
2017-Feb-10 14:33N 40°32' E 001°26'1211.9
2017-Feb-10 13:33N 40°41' E 001°37'1311.8
2017-Feb-10 12:25N 40°52' E 001°47'17 2.4
2017-Feb-10 05:27N 41°03' E 002°04'1011.4
2017-Feb-10 04:33N 40°54' E 001°59'1211.5
2017-Feb-10 03:33N 40°43' E 001°53'1211.7
2017-Feb-10 02:30N 40°32' E 001°47'1212.2
2017-Feb-10 01:32N 40°21' E 001°41'1211.9
2017-Feb-10 00:33N 40°10' E 001°36'1211.5
2017-Feb-09 23:33N 39°59' E 001°30'1111.2
2017-Feb-09 22:33N 39°49' E 001°25'1211.2
2017-Feb-09 21:28N 39°38' E 001°19'1111.5
2017-Feb-09 20:32N 39°28' E 001°14'1111.6
2017-Feb-09 19:33N 39°17' E 001°08'1211.8
2017-Feb-09 18:33N 39°06' E 001°03'1711.7
2017-Feb-09 17:07N 38°50' E 000°55'  

Dump ship's entire track history